createdAt,value
2018-09-12T00:02:28.584Z,54.74
2018-09-12T00:04:59.254Z,55.02
2018-09-12T00:07:29.960Z,55.09
2018-09-12T00:10:00.640Z,55.04
2018-09-12T00:12:31.354Z,55.43
2018-09-12T00:15:02.096Z,55.36
2018-09-12T00:17:32.760Z,55.04
2018-09-12T00:20:03.489Z,55.56
2018-09-12T00:22:34.167Z,55.25
2018-09-12T00:25:04.964Z,55.24
2018-09-12T00:27:35.683Z,55.50
2018-09-12T00:30:06.454Z,55.45
2018-09-12T00:32:37.188Z,56.08
2018-09-12T00:35:07.987Z,55.81
2018-09-12T00:37:38.693Z,55.74
2018-09-12T00:40:09.424Z,55.98
2018-09-12T00:42:40.100Z,56.55
2018-09-12T00:45:10.752Z,56.44
2018-09-12T00:47:41.491Z,56.57
2018-09-12T00:50:12.136Z,56.57
2018-09-12T00:52:42.805Z,56.78
2018-09-12T00:55:13.489Z,56.88
2018-09-12T00:57:44.188Z,57.10
2018-09-12T01:00:14.912Z,57.39
2018-09-12T01:02:45.648Z,57.58
2018-09-12T01:05:16.391Z,57.23
2018-09-12T01:07:47.068Z,57.60
2018-09-12T01:10:17.900Z,58.08
2018-09-12T01:12:48.621Z,58.34
2018-09-12T01:15:19.451Z,58.25
2018-09-12T01:17:50.144Z,58.72
2018-09-12T01:20:20.883Z,59.07
2018-09-12T01:22:51.528Z,59.02
2018-09-12T01:25:22.226Z,59.41
2018-09-12T01:27:57.114Z,59.78
2018-09-12T01:30:27.870Z,60.19
2018-09-12T01:32:58.657Z,60.10
2018-09-12T01:35:29.437Z,59.94
2018-09-12T01:38:00.270Z,60.05
2018-09-12T01:40:30.933Z,59.98
2018-09-12T01:43:01.624Z,60.53
2018-09-12T01:45:32.297Z,60.82
2018-09-12T01:48:03.078Z,60.75
2018-09-12T01:50:33.710Z,60.86
2018-09-12T01:53:04.405Z,61.49
2018-09-12T01:55:35.105Z,61.58
2018-09-12T01:58:05.838Z,62.02
2018-09-12T02:00:39.405Z,61.97
2018-09-12T02:03:10.600Z,61.96
2018-09-12T02:05:41.345Z,62.00
2018-09-12T02:08:12.008Z,61.87
2018-09-12T02:10:42.684Z,61.89
2018-09-12T02:13:13.415Z,62.31
2018-09-12T02:15:44.076Z,62.16
2018-09-12T02:18:14.813Z,62.23
2018-09-12T02:20:45.608Z,62.66
2018-09-12T02:23:16.352Z,62.79
2018-09-12T02:25:46.975Z,62.57
2018-09-12T02:28:17.673Z,61.92
2018-09-12T02:30:48.411Z,62.76
2018-09-12T02:33:19.204Z,63.06
2018-09-12T02:35:55.032Z,63.15
2018-09-12T02:38:25.794Z,63.10
2018-09-12T02:40:56.733Z,63.52
2018-09-12T02:43:27.537Z,63.75
2018-09-12T02:45:58.387Z,63.87
2018-09-12T02:48:29.149Z,63.57
2018-09-12T02:50:59.864Z,63.84
2018-09-12T02:53:30.603Z,63.71
2018-09-12T02:56:01.326Z,63.80
2018-09-12T02:58:32.157Z,64.31
2018-09-12T03:01:02.919Z,64.39
2018-09-12T03:03:33.693Z,64.38
2018-09-12T03:06:04.559Z,64.94
2018-09-12T03:08:35.321Z,64.95
2018-09-12T03:11:06.271Z,65.09
2018-09-12T03:13:36.989Z,65.59
2018-09-12T03:16:07.801Z,65.61
2018-09-12T03:18:38.504Z,65.92
2018-09-12T03:21:09.294Z,65.55
2018-09-12T03:23:39.923Z,65.70
2018-09-12T03:26:10.703Z,65.75
2018-09-12T03:28:41.367Z,65.59
2018-09-12T03:31:12.104Z,65.50
2018-09-12T03:33:42.801Z,66.11
2018-09-12T03:36:13.491Z,65.93
2018-09-12T03:38:44.242Z,66.38
2018-09-12T03:41:15.077Z,66.44
2018-09-12T03:43:45.765Z,66.60
2018-09-12T03:46:16.501Z,66.32
2018-09-12T03:48:47.591Z,66.85
2018-09-12T03:51:18.479Z,66.57
2018-09-12T03:53:49.129Z,66.15
2018-09-12T03:56:19.874Z,66.31
2018-09-12T03:58:50.656Z,66.16
2018-09-12T04:01:21.454Z,66.46
2018-09-12T04:03:52.310Z,66.10
2018-09-12T04:06:23.311Z,66.35
2018-09-12T04:08:54.019Z,66.76
2018-09-12T04:11:24.749Z,66.68
2018-09-12T04:13:55.533Z,66.28
2018-09-12T04:16:26.269Z,66.26
2018-09-12T04:18:57.013Z,66.29
2018-09-12T04:21:27.736Z,66.33
2018-09-12T04:23:58.495Z,66.79
2018-09-12T04:26:29.315Z,66.11
2018-09-12T04:29:00.000Z,66.79
2018-09-12T04:31:30.746Z,66.54
2018-09-12T04:34:01.465Z,66.14
2018-09-12T04:36:32.177Z,66.40
2018-09-12T04:39:03.000Z,66.51
2018-09-12T04:41:33.730Z,66.56
2018-09-12T04:44:04.590Z,66.70
2018-09-12T04:46:35.940Z,67.01
2018-09-12T04:49:06.947Z,67.16
2018-09-12T04:51:37.692Z,67.22
2018-09-12T04:54:08.654Z,67.54
2018-09-12T04:56:39.401Z,67.18
2018-09-12T04:59:10.105Z,67.29
2018-09-12T05:01:40.790Z,67.37
2018-09-12T05:04:11.573Z,67.60
2018-09-12T05:06:42.292Z,67.60
2018-09-12T05:09:13.188Z,67.37
2018-09-12T05:11:43.857Z,67.43
2018-09-12T05:14:14.640Z,67.55
2018-09-12T05:16:45.660Z,67.37
2018-09-12T05:19:16.401Z,67.44
2018-09-12T05:21:47.165Z,67.57
2018-09-12T05:24:17.972Z,67.81
2018-09-12T05:26:48.804Z,67.54
2018-09-12T05:29:19.547Z,68.01
2018-09-12T05:31:50.227Z,67.98
2018-09-12T05:34:20.973Z,67.89
2018-09-12T05:36:51.648Z,67.85
2018-09-12T05:39:22.369Z,67.41
2018-09-12T05:41:53.065Z,67.87
2018-09-12T05:44:23.837Z,67.82
2018-09-12T05:46:54.458Z,67.53
2018-09-12T05:49:25.160Z,67.33
2018-09-12T05:51:55.845Z,66.89
2018-09-12T05:54:26.533Z,66.78
2018-09-12T05:56:57.207Z,66.94
2018-09-12T05:59:27.951Z,66.66
2018-09-12T06:01:58.622Z,66.38
2018-09-12T06:04:29.324Z,66.18
2018-09-12T06:07:00.143Z,65.93
2018-09-12T06:09:30.701Z,65.92
2018-09-12T06:12:01.404Z,65.14
2018-09-12T06:14:32.134Z,64.68
2018-09-12T06:17:02.929Z,65.04
2018-09-12T06:19:33.687Z,64.86
2018-09-12T06:22:04.495Z,63.51
2018-09-12T06:24:35.260Z,64.04
2018-09-12T06:27:06.128Z,63.23
2018-09-12T06:29:36.856Z,63.67
2018-09-12T06:32:07.581Z,63.00
2018-09-12T06:34:38.320Z,62.41
2018-09-12T06:37:08.964Z,61.99
2018-09-12T06:39:39.709Z,61.00
2018-09-12T06:42:10.390Z,60.56
2018-09-12T06:44:41.218Z,60.45
2018-09-12T06:47:12.065Z,60.06
2018-09-12T06:49:47.264Z,59.99
2018-09-12T06:52:20.403Z,60.39
2018-09-12T06:54:51.662Z,59.79
2018-09-12T06:57:22.416Z,59.73
2018-09-12T06:59:53.100Z,60.08
2018-09-12T07:02:23.792Z,59.37
2018-09-12T07:04:54.651Z,59.43
2018-09-12T07:07:25.385Z,59.21
2018-09-12T07:09:56.270Z,59.47
2018-09-12T07:12:26.925Z,59.22
2018-09-12T07:14:57.657Z,59.43
2018-09-12T07:17:28.333Z,59.14
2018-09-12T07:19:59.115Z,59.51
2018-09-12T07:22:29.812Z,58.05
2018-09-12T07:25:00.481Z,57.64
2018-09-12T07:27:31.591Z,55.86
2018-09-12T07:30:02.315Z,55.18
2018-09-12T07:32:32.996Z,55.48
2018-09-12T07:35:03.818Z,54.72
2018-09-12T07:37:34.633Z,55.10
2018-09-12T07:40:05.547Z,54.97
2018-09-12T07:42:36.357Z,55.37
2018-09-12T07:45:07.731Z,56.11
2018-09-12T07:47:38.445Z,56.20
2018-09-12T07:50:09.326Z,56.90
2018-09-12T07:52:40.173Z,57.56
2018-09-12T07:55:10.990Z,58.03
2018-09-12T07:57:41.831Z,58.93
2018-09-12T08:00:12.753Z,59.79
2018-09-12T08:02:43.411Z,60.30
2018-09-12T08:05:14.218Z,60.48
2018-09-12T08:07:44.928Z,60.02
2018-09-12T08:10:17.533Z,59.90
2018-09-12T08:12:49.420Z,60.42
2018-09-12T08:15:20.231Z,60.98
2018-09-12T08:17:51.062Z,62.20
2018-09-12T08:20:21.896Z,62.73
2018-09-12T08:22:52.599Z,62.64
2018-09-12T08:25:24.441Z,60.51
2018-09-12T08:27:55.214Z,58.83
2018-09-12T08:30:26.632Z,57.77
2018-09-12T08:32:57.450Z,55.61
2018-09-12T08:35:28.164Z,54.48
2018-09-12T08:37:58.927Z,53.83
2018-09-12T08:40:29.875Z,53.28
2018-09-12T08:43:00.628Z,53.97
2018-09-12T08:45:31.368Z,52.56
2018-09-12T08:48:02.119Z,52.23
2018-09-12T08:50:32.887Z,51.86
2018-09-12T08:53:06.513Z,51.37
2018-09-12T08:55:37.331Z,50.85
2018-09-12T08:58:08.232Z,49.57
2018-09-12T09:00:39.517Z,49.31
2018-09-12T09:03:10.309Z,49.15
2018-09-12T09:05:41.085Z,47.92
2018-09-12T09:08:11.847Z,47.61
2018-09-12T09:10:42.597Z,46.29
2018-09-12T09:13:13.384Z,45.23
2018-09-12T09:15:44.212Z,45.14
2018-09-12T09:18:17.356Z,46.13
2018-09-12T09:20:48.197Z,47.10
2018-09-12T09:23:18.883Z,47.43
2018-09-12T09:25:49.628Z,46.60
2018-09-12T09:28:20.345Z,45.55
2018-09-12T09:30:51.087Z,44.93
2018-09-12T09:33:21.920Z,45.74
2018-09-12T09:35:52.743Z,45.82
2018-09-12T09:38:24.400Z,46.19
2018-09-12T09:40:56.549Z,46.26
2018-09-12T09:43:27.443Z,47.10
2018-09-12T09:45:58.940Z,46.10
2018-09-12T09:48:30.765Z,44.92
2018-09-12T09:51:02.579Z,43.53
2018-09-12T09:53:33.742Z,42.79
2018-09-12T09:56:04.707Z,41.98
2018-09-12T09:58:39.978Z,41.56
2018-09-12T10:01:16.946Z,41.68
2018-09-12T10:03:52.878Z,41.84
2018-09-12T10:07:29.604Z,40.64
2018-09-12T10:10:04.775Z,39.81
2018-09-12T10:12:35.927Z,39.93
2018-09-12T10:15:07.125Z,39.42
2018-09-12T10:17:40.632Z,39.62
2018-09-12T10:20:11.389Z,38.54
2018-09-12T10:22:42.081Z,39.89
2018-09-12T10:25:12.743Z,40.14
2018-09-12T10:27:43.467Z,40.98
2018-09-12T10:30:14.193Z,41.88
2018-09-12T10:32:44.909Z,41.95
2018-09-12T10:35:15.582Z,42.59
2018-09-12T10:37:46.271Z,42.17
2018-09-12T10:40:16.920Z,42.53
2018-09-12T10:42:47.625Z,42.90
2018-09-12T10:45:18.366Z,42.06
2018-09-12T10:47:49.148Z,41.86
2018-09-12T10:50:19.860Z,41.28
2018-09-12T10:52:50.574Z,41.22
2018-09-12T10:55:21.286Z,40.08
2018-09-12T10:57:51.964Z,39.60
2018-09-12T11:00:22.730Z,38.81
2018-09-12T11:02:53.483Z,37.44
2018-09-12T11:05:24.235Z,37.29
2018-09-12T11:07:54.893Z,36.87
2018-09-12T11:10:25.651Z,36.62
2018-09-12T11:12:56.953Z,36.68
2018-09-12T11:15:27.665Z,37.41
2018-09-12T11:17:58.415Z,39.12
2018-09-12T11:20:29.176Z,39.53
2018-09-12T11:23:00.715Z,41.45
2018-09-12T11:25:31.432Z,40.14
2018-09-12T11:28:02.133Z,40.08
2018-09-12T11:30:32.870Z,40.71
2018-09-12T11:33:03.621Z,40.20
2018-09-12T11:35:34.408Z,40.50
2018-09-12T11:38:05.122Z,40.63
2018-09-12T11:40:35.905Z,40.61
2018-09-12T11:43:06.683Z,41.00
2018-09-12T11:45:37.356Z,41.36
2018-09-12T11:48:08.324Z,41.90
2018-09-12T11:50:39.068Z,42.66
2018-09-12T11:53:09.719Z,42.98
2018-09-12T11:55:40.418Z,43.15
2018-09-12T11:58:11.048Z,42.77
2018-09-12T12:00:41.798Z,42.74
2018-09-12T12:03:12.501Z,42.71
2018-09-12T12:05:43.241Z,42.78
2018-09-12T12:08:13.975Z,43.63
2018-09-12T12:10:44.683Z,45.38
2018-09-12T12:13:15.387Z,46.54
2018-09-12T12:15:46.025Z,45.83
2018-09-12T12:18:16.668Z,46.74
2018-09-12T12:20:47.394Z,47.39
2018-09-12T12:23:18.171Z,48.23
2018-09-12T12:25:48.897Z,48.97
2018-09-12T12:28:19.562Z,48.57
2018-09-12T12:30:50.325Z,48.97
2018-09-12T12:33:21.007Z,49.13
2018-09-12T12:35:51.739Z,50.44
2018-09-12T12:38:22.421Z,50.32
2018-09-12T12:40:53.153Z,51.18
2018-09-12T12:43:23.830Z,50.94
2018-09-12T12:45:54.540Z,51.42
2018-09-12T12:48:25.275Z,51.03
2018-09-12T12:50:56.027Z,51.58
2018-09-12T12:53:26.776Z,51.73
2018-09-12T12:55:57.537Z,52.41
2018-09-12T12:58:28.208Z,53.05
2018-09-12T13:00:58.921Z,52.98
2018-09-12T13:03:29.603Z,53.33
2018-09-12T13:06:00.277Z,53.04
2018-09-12T13:08:30.928Z,53.35
2018-09-12T13:11:01.652Z,53.13
2018-09-12T13:13:32.347Z,53.17
2018-09-12T13:16:03.209Z,53.40
2018-09-12T13:18:34.027Z,53.62
2018-09-12T13:21:04.658Z,53.97
2018-09-12T13:23:35.431Z,54.01
2018-09-12T13:26:06.099Z,54.03
2018-09-12T13:28:36.799Z,53.51
2018-09-12T13:31:07.554Z,53.09
2018-09-12T13:33:38.241Z,53.50
2018-09-12T13:36:08.960Z,53.46
2018-09-12T13:38:39.644Z,53.36
2018-09-12T13:41:10.226Z,52.26
2018-09-12T13:43:40.900Z,52.66
2018-09-12T13:46:11.533Z,53.98
2018-09-12T13:48:42.220Z,53.61
2018-09-12T13:51:12.938Z,53.90
2018-09-12T13:53:43.573Z,53.49
2018-09-12T13:56:14.252Z,53.72
2018-09-12T13:58:44.886Z,53.45
2018-09-12T14:01:15.602Z,53.89
2018-09-12T14:03:46.383Z,53.44
2018-09-12T14:06:16.980Z,54.46
2018-09-12T14:08:47.690Z,54.13
2018-09-12T14:11:18.491Z,54.53
2018-09-12T14:13:49.181Z,54.82
2018-09-12T14:16:19.875Z,55.52
2018-09-12T14:18:50.719Z,55.30
2018-09-12T14:21:21.455Z,55.09
2018-09-12T14:23:52.135Z,54.92
2018-09-12T14:26:22.768Z,54.76
2018-09-12T14:28:53.442Z,55.11
2018-09-12T14:31:24.127Z,55.56
2018-09-12T14:33:54.850Z,55.30
2018-09-12T14:36:25.569Z,55.93
2018-09-12T14:38:56.292Z,57.11
2018-09-12T14:41:27.066Z,57.08
2018-09-12T14:43:57.804Z,57.54
2018-09-12T14:46:28.489Z,57.71
2018-09-12T14:48:59.219Z,57.85
2018-09-12T14:51:29.974Z,57.95
2018-09-12T14:54:00.825Z,58.15
2018-09-12T14:56:31.547Z,58.73
2018-09-12T14:59:02.412Z,58.71
2018-09-12T15:01:33.127Z,58.93
2018-09-12T15:04:03.979Z,58.60
2018-09-12T15:06:34.711Z,59.68
2018-09-12T15:09:08.379Z,59.13
2018-09-12T15:11:39.163Z,59.05
2018-09-12T15:14:10.299Z,59.83
2018-09-12T15:16:41.125Z,59.47
2018-09-12T15:19:11.860Z,59.85
2018-09-12T15:21:42.705Z,59.94
2018-09-12T15:24:13.426Z,59.92
2018-09-12T15:26:44.170Z,60.02
2018-09-12T15:29:15.516Z,60.44
2018-09-12T15:31:46.195Z,61.09
2018-09-12T15:34:16.875Z,60.74
2018-09-12T15:36:47.589Z,60.93
2018-09-12T15:39:18.406Z,61.24
2018-09-12T15:41:49.121Z,61.93
2018-09-12T15:44:19.939Z,62.49
2018-09-12T15:46:50.593Z,62.66
2018-09-12T15:49:21.363Z,63.95
2018-09-12T15:51:52.133Z,64.73
2018-09-12T15:54:22.829Z,65.57
2018-09-12T15:56:53.532Z,67.24
2018-09-12T15:59:24.425Z,69.36
2018-09-12T16:02:01.926Z,69.12
2018-09-12T16:04:32.662Z,68.46
2018-09-12T16:07:03.384Z,67.02
2018-09-12T16:09:34.105Z,67.83
2018-09-12T16:12:04.997Z,66.48
2018-09-12T16:14:35.944Z,65.74
2018-09-12T16:17:06.867Z,65.73
2018-09-12T16:19:37.668Z,65.69
2018-09-12T16:22:08.468Z,64.43
2018-09-12T16:24:39.610Z,65.01
2018-09-12T16:27:10.424Z,65.95
2018-09-12T16:29:41.136Z,66.66
2018-09-12T16:32:11.929Z,67.61
2018-09-12T16:34:43.745Z,68.21
2018-09-12T16:37:14.413Z,68.69
2018-09-12T16:39:45.134Z,69.16
2018-09-12T16:42:15.887Z,69.78
2018-09-12T16:44:46.605Z,69.91
2018-09-12T16:47:17.297Z,70.99
2018-09-12T16:49:48.215Z,70.97
2018-09-12T16:52:18.993Z,71.32
2018-09-12T16:54:51.134Z,71.83
2018-09-12T16:57:20.954Z,71.70
2018-09-12T16:59:51.626Z,71.71
2018-09-12T17:02:22.553Z,72.03
2018-09-12T17:04:56.557Z,71.65
2018-09-12T17:07:27.314Z,72.08
2018-09-12T17:09:58.049Z,72.11
2018-09-12T17:12:28.703Z,72.72
2018-09-12T17:14:59.538Z,72.68
2018-09-12T17:17:36.123Z,72.74
2018-09-12T17:20:07.571Z,72.80
2018-09-12T17:22:38.377Z,72.94
2018-09-12T17:25:09.339Z,72.71
2018-09-12T17:27:41.648Z,73.02
2018-09-12T17:30:12.986Z,73.07
2018-09-12T17:32:43.769Z,73.51
2018-09-12T17:35:14.604Z,73.26
2018-09-12T17:37:46.721Z,73.08
2018-09-12T17:40:18.929Z,73.54
2018-09-12T17:42:50.010Z,73.20
2018-09-12T17:45:20.853Z,73.53
2018-09-12T17:47:53.488Z,73.11
2018-09-12T17:50:24.275Z,73.44
2018-09-12T17:52:55.040Z,73.55
2018-09-12T17:55:25.938Z,73.63
2018-09-12T17:57:56.857Z,73.84
2018-09-12T18:00:30.159Z,73.29
2018-09-12T18:03:00.998Z,73.22
2018-09-12T18:05:41.541Z,73.19
2018-09-12T18:08:12.380Z,73.57
2018-09-12T18:10:43.221Z,73.80
2018-09-12T18:13:15.340Z,73.68
2018-09-12T18:15:46.153Z,73.75
2018-09-12T18:18:17.953Z,74.09
2018-09-12T18:20:49.255Z,74.20
2018-09-12T18:23:21.018Z,74.10
2018-09-12T18:25:51.985Z,73.15
2018-09-12T18:28:27.074Z,72.91
2018-09-12T18:31:02.118Z,74.03
2018-09-12T18:33:32.932Z,73.56
2018-09-12T18:36:03.706Z,74.21
2018-09-12T18:38:34.990Z,74.63
2018-09-12T18:41:05.930Z,74.47
2018-09-12T18:43:36.689Z,75.27
2018-09-12T18:46:07.592Z,75.53
2018-09-12T18:48:38.658Z,75.16
2018-09-12T18:51:11.147Z,74.92
2018-09-12T18:53:41.900Z,75.02
2018-09-12T18:56:12.621Z,75.25
2018-09-12T18:58:43.318Z,75.25
2018-09-12T19:01:14.174Z,75.32
2018-09-12T19:03:44.895Z,75.53
2018-09-12T19:06:15.832Z,75.70
2018-09-12T19:08:46.579Z,76.26
2018-09-12T19:11:17.445Z,76.09
2018-09-12T19:13:49.197Z,76.45
2018-09-12T19:16:24.249Z,76.41
2018-09-12T19:18:54.937Z,76.71
2018-09-12T19:21:25.821Z,76.37
2018-09-12T19:23:56.496Z,76.54
2018-09-12T19:26:27.271Z,76.53
2018-09-12T19:28:58.024Z,76.74
2018-09-12T19:31:28.717Z,76.73
2018-09-12T19:33:59.636Z,76.90
2018-09-12T19:36:30.288Z,77.21
2018-09-12T19:39:01.092Z,77.58
2018-09-12T19:41:31.921Z,77.66
2018-09-12T19:44:02.681Z,77.00
2018-09-12T19:46:33.463Z,77.68
2018-09-12T19:49:04.562Z,77.43
2018-09-12T19:51:35.277Z,77.80
2018-09-12T19:54:06.476Z,77.61
2018-09-12T19:56:37.265Z,77.72
2018-09-12T19:59:07.984Z,78.01
2018-09-12T20:01:38.724Z,78.21
2018-09-12T20:04:09.467Z,78.37
2018-09-12T20:06:40.184Z,78.57
2018-09-12T20:09:12.124Z,78.64
2018-09-12T20:11:42.987Z,78.75
2018-09-12T20:14:13.769Z,78.26
2018-09-12T20:16:44.472Z,78.15
2018-09-12T20:19:15.281Z,79.07
2018-09-12T20:21:46.065Z,78.69
2018-09-12T20:24:16.831Z,78.82
2018-09-12T20:26:47.634Z,79.17
2018-09-12T20:29:18.430Z,79.26
2018-09-12T20:31:49.169Z,78.71
2018-09-12T20:34:20.038Z,79.13
2018-09-12T20:36:50.794Z,78.74
2018-09-12T20:39:21.761Z,78.93
2018-09-12T20:41:52.441Z,78.48
2018-09-12T20:44:23.179Z,78.34
2018-09-12T20:46:53.997Z,78.43
2018-09-12T20:49:24.747Z,78.37
2018-09-12T20:51:55.532Z,78.89
2018-09-12T20:54:26.277Z,78.97
2018-09-12T20:56:57.116Z,78.47
2018-09-12T20:59:27.951Z,78.36
2018-09-12T21:01:58.689Z,78.94
2018-09-12T21:04:29.412Z,78.91
2018-09-12T21:07:00.143Z,78.85
2018-09-12T21:09:30.836Z,78.75
2018-09-12T21:12:01.584Z,78.75
2018-09-12T21:14:32.312Z,79.00
2018-09-12T21:17:03.105Z,79.32
2018-09-12T21:19:33.815Z,79.46
2018-09-12T21:22:04.595Z,79.38
2018-09-12T21:24:35.536Z,79.60
2018-09-12T21:27:06.333Z,79.79
2018-09-12T21:29:37.068Z,80.08
2018-09-12T21:32:07.841Z,79.54
2018-09-12T21:34:38.629Z,79.63
2018-09-12T21:37:09.363Z,79.30
2018-09-12T21:39:40.154Z,79.94
2018-09-12T21:42:10.877Z,79.63
2018-09-12T21:44:41.556Z,79.24
2018-09-12T21:47:12.287Z,79.54
2018-09-12T21:49:42.967Z,79.69
2018-09-12T21:52:13.723Z,79.44
2018-09-12T21:54:44.416Z,79.60
2018-09-12T21:57:15.214Z,79.53
2018-09-12T21:59:45.881Z,79.49
2018-09-12T22:02:16.631Z,78.82
2018-09-12T22:04:47.339Z,79.38
2018-09-12T22:07:18.316Z,79.22
2018-09-12T22:09:49.058Z,78.76
2018-09-12T22:12:19.737Z,78.94
2018-09-12T22:14:50.453Z,78.85
2018-09-12T22:17:21.144Z,79.06
2018-09-12T22:19:51.939Z,79.21
2018-09-12T22:22:22.677Z,79.33
2018-09-12T22:24:53.359Z,79.10
2018-09-12T22:27:24.142Z,79.32
2018-09-12T22:29:54.986Z,79.32
2018-09-12T22:32:25.922Z,79.48
2018-09-12T22:34:56.883Z,79.41
2018-09-12T22:37:28.297Z,79.50
2018-09-12T22:39:59.017Z,79.61
2018-09-12T22:42:29.906Z,79.18
2018-09-12T22:45:00.600Z,78.95
2018-09-12T22:47:31.492Z,78.42
2018-09-12T22:50:02.230Z,78.33
2018-09-12T22:52:32.961Z,78.45
2018-09-12T22:55:04.436Z,78.95
2018-09-12T22:57:35.189Z,78.86
2018-09-12T23:00:06.705Z,79.73
2018-09-12T23:02:37.469Z,80.25
2018-09-12T23:05:08.417Z,80.59
2018-09-12T23:07:39.339Z,80.34
2018-09-12T23:10:10.105Z,81.05
2018-09-12T23:12:40.828Z,81.25
2018-09-12T23:15:11.688Z,81.74
2018-09-12T23:17:42.447Z,81.54
2018-09-12T23:20:13.163Z,81.61
2018-09-12T23:22:43.981Z,81.22
2018-09-12T23:25:14.706Z,80.95
2018-09-12T23:27:45.470Z,81.23
2018-09-12T23:30:16.141Z,80.59
2018-09-12T23:32:46.848Z,80.70
2018-09-12T23:35:17.528Z,80.66
2018-09-12T23:37:48.214Z,81.32
2018-09-12T23:40:18.992Z,81.00
2018-09-12T23:42:49.636Z,81.29
2018-09-12T23:45:20.309Z,81.07
2018-09-12T23:47:51.005Z,81.27
2018-09-12T23:50:21.735Z,81.09
2018-09-12T23:52:52.407Z,81.46
2018-09-12T23:55:23.107Z,81.98
2018-09-12T23:57:53.826Z,82.05
